createdAt,value
2023-04-01T00:01:29.441Z,10.09
2023-04-01T00:06:36.614Z,10.11
2023-04-01T00:11:44.083Z,10.13
2023-04-01T00:16:51.295Z,10.15
2023-04-01T00:21:58.373Z,10.16
2023-04-01T00:27:05.725Z,10.16
2023-04-01T00:32:13.301Z,10.15
2023-04-01T00:37:20.595Z,10.13
2023-04-01T00:42:27.618Z,10.15
2023-04-01T00:47:34.941Z,10.15
2023-04-01T00:52:42.396Z,10.10
2023-04-01T00:57:52.589Z,10.05
2023-04-01T01:02:59.801Z,9.99
2023-04-01T01:08:15.580Z,9.89
2023-04-01T01:13:28.852Z,9.79
2023-04-01T01:18:42.340Z,9.73
2023-04-01T01:24:10.407Z,9.67
2023-04-01T01:29:44.313Z,9.59
2023-04-01T01:34:59.664Z,9.53
2023-04-01T01:40:12.222Z,9.48
2023-04-01T01:45:24.018Z,9.43
2023-04-01T01:50:32.331Z,9.40
2023-04-01T01:55:39.242Z,9.37
2023-04-01T02:00:51.075Z,9.32
2023-04-01T02:06:02.063Z,9.27
2023-04-01T02:11:13.399Z,9.23
2023-04-01T02:16:28.278Z,9.16
2023-04-01T02:21:37.597Z,9.08
2023-04-01T02:26:45.221Z,9.00
2023-04-01T02:31:53.501Z,8.92
2023-04-01T02:37:01.213Z,8.85
2023-04-01T02:42:09.065Z,8.81
2023-04-01T02:47:16.256Z,8.73
2023-04-01T02:52:23.390Z,8.68
2023-04-01T02:57:31.680Z,8.65
2023-04-01T03:02:38.854Z,8.65
2023-04-01T03:07:46.071Z,8.65
2023-04-01T03:12:54.221Z,8.64
2023-04-01T03:18:01.775Z,8.59
2023-04-01T03:23:09.546Z,8.53
2023-04-01T03:28:16.673Z,8.46
2023-04-01T03:33:24.083Z,8.37
2023-04-01T03:38:31.236Z,8.29
2023-04-01T03:43:38.300Z,8.16
2023-04-01T03:48:45.953Z,8.03
2023-04-01T03:53:53.091Z,7.95
2023-04-01T03:59:00.385Z,7.93
2023-04-01T04:04:09.483Z,7.90
2023-04-01T04:09:16.706Z,7.84
2023-04-01T04:14:25.053Z,7.75
2023-04-01T04:19:37.178Z,7.64
2023-04-01T04:24:44.497Z,7.55
2023-04-01T04:29:53.748Z,7.49
2023-04-01T04:35:00.923Z,7.41
2023-04-01T04:40:10.337Z,7.33
2023-04-01T04:45:17.668Z,7.28
2023-04-01T04:50:33.935Z,7.22
2023-04-01T04:55:44.843Z,7.10
2023-04-01T05:01:01.113Z,6.99
2023-04-01T05:06:12.388Z,6.90
2023-04-01T05:11:22.219Z,6.83
2023-04-01T05:16:31.055Z,6.76
2023-04-01T05:21:39.264Z,6.65
2023-04-01T05:26:46.382Z,6.54
2023-04-01T05:31:53.821Z,6.46
2023-04-01T05:37:03.335Z,6.43
2023-04-01T05:42:11.051Z,6.40
2023-04-01T05:47:18.570Z,6.34
2023-04-01T05:52:26.492Z,6.29
2023-04-01T05:57:32.318Z,6.25
2023-04-01T06:02:40.475Z,6.22
2023-04-01T06:07:48.349Z,6.19
2023-04-01T06:13:06.729Z,6.15
2023-04-01T06:18:47.240Z,6.13
2023-04-01T06:24:07.479Z,6.12
2023-04-01T06:29:46.062Z,6.16
2023-04-01T06:35:25.629Z,6.23
2023-04-01T06:40:59.166Z,6.30
2023-04-01T06:46:16.356Z,6.32
2023-04-01T06:52:12.659Z,6.37
2023-04-01T06:57:46.086Z,6.43
2023-04-01T07:03:06.200Z,6.54
2023-04-01T07:08:18.390Z,6.63
2023-04-01T07:13:31.674Z,6.67
2023-04-01T07:18:50.530Z,6.64
2023-04-01T07:24:03.349Z,6.61
2023-04-01T07:29:18.032Z,6.63
2023-04-01T07:34:43.104Z,6.64
2023-04-01T07:39:58.107Z,6.59
2023-04-01T07:45:24.485Z,6.51
2023-04-01T07:51:01.357Z,6.45
2023-04-01T07:56:16.990Z,6.44
2023-04-01T08:01:33.670Z,6.41
2023-04-01T08:06:50.447Z,6.31
2023-04-01T08:12:10.624Z,6.23
2023-04-01T08:17:48.538Z,6.23
2023-04-01T08:23:03.303Z,6.29
2023-04-01T08:28:23.603Z,6.35
2023-04-01T08:33:33.709Z,6.41
2023-04-01T08:38:56.086Z,6.49
2023-04-01T08:44:27.008Z,6.61
2023-04-01T08:49:52.478Z,6.75
2023-04-01T08:55:55.010Z,6.84
2023-04-01T09:01:16.658Z,6.95
2023-04-01T09:06:53.025Z,7.07
2023-04-01T09:12:21.021Z,7.17
2023-04-01T09:17:58.673Z,7.23
2023-04-01T09:23:25.391Z,7.27
2023-04-01T09:28:44.778Z,7.29
2023-04-01T09:34:21.764Z,7.31
2023-04-01T09:39:58.578Z,7.36
2023-04-01T09:45:11.210Z,7.37
2023-04-01T09:50:42.674Z,7.36
2023-04-01T09:56:28.859Z,7.39
2023-04-01T10:02:00.760Z,7.43
2023-04-01T10:07:37.693Z,7.46
2023-04-01T10:13:24.329Z,7.47
2023-04-01T10:19:05.179Z,7.55
2023-04-01T10:24:50.911Z,7.61
2023-04-01T10:30:31.708Z,7.61
2023-04-01T10:36:24.816Z,7.62
2023-04-01T10:42:14.254Z,7.73
2023-04-01T10:48:29.272Z,7.86
2023-04-01T10:53:59.239Z,7.91
2023-04-01T10:59:59.986Z,7.89
2023-04-01T11:12:01.651Z,8.04
2023-04-01T11:17:48.875Z,8.07
2023-04-01T11:23:36.327Z,8.08
2023-04-01T11:29:05.679Z,8.02
2023-04-01T11:34:28.371Z,7.97
2023-04-01T11:39:42.648Z,7.97
2023-04-01T11:45:22.685Z,7.91
2023-04-01T11:50:42.896Z,7.82
2023-04-01T11:56:03.907Z,7.76
2023-04-01T12:01:28.549Z,7.80
2023-04-01T12:06:41.730Z,7.88
2023-04-01T12:12:12.030Z,7.91
2023-04-01T12:17:30.717Z,7.95
2023-04-01T12:22:46.576Z,8.02
2023-04-01T12:28:00.599Z,8.09
2023-04-01T12:33:26.080Z,8.13
2023-04-01T12:38:42.932Z,8.12
2023-04-01T12:44:27.643Z,8.05
2023-04-01T12:49:45.805Z,7.93
2023-04-01T12:55:23.661Z,7.87
2023-04-01T13:00:45.015Z,7.91
2023-04-01T13:06:23.452Z,7.99
2023-04-01T13:11:40.641Z,8.03
2023-04-01T13:16:50.999Z,8.01
2023-04-01T13:22:04.205Z,8.00
2023-04-01T13:27:13.833Z,7.98
2023-04-01T13:37:56.326Z,8.04
2023-04-01T13:43:05.068Z,7.99
2023-04-01T13:48:30.813Z,7.84
2023-04-01T13:53:53.233Z,7.79
2023-04-01T13:59:07.389Z,7.83
2023-04-01T14:04:35.497Z,7.84
2023-04-01T14:10:01.038Z,7.81
2023-04-01T14:15:43.362Z,7.73
2023-04-01T14:20:52.869Z,7.66
2023-04-01T14:26:13.169Z,7.58
2023-04-01T14:31:43.841Z,7.42
2023-04-01T14:36:57.167Z,7.35
2023-04-01T14:42:21.942Z,7.31
2023-04-01T14:47:48.147Z,7.18
2023-04-01T14:53:00.595Z,7.01
2023-04-01T14:58:12.014Z,6.84
2023-04-01T15:03:24.045Z,6.71
2023-04-01T15:08:33.886Z,6.60
2023-04-01T15:14:12.266Z,6.49
2023-04-01T15:19:27.448Z,6.35
2023-04-01T15:24:47.743Z,6.23
2023-04-01T15:30:13.158Z,6.14
2023-04-01T15:35:29.501Z,6.07
2023-04-01T15:40:45.028Z,6.03
2023-04-01T15:45:59.026Z,5.98
2023-04-01T15:51:19.441Z,5.92
2023-04-01T15:56:37.098Z,5.81
2023-04-01T16:01:49.829Z,5.73
2023-04-01T16:07:10.904Z,5.72
2023-04-01T16:17:55.733Z,5.56
2023-04-01T16:23:05.223Z,5.41
2023-04-01T16:28:20.976Z,5.27
2023-04-01T16:33:34.375Z,5.18
2023-04-01T16:38:42.870Z,5.10
2023-04-01T16:43:54.910Z,4.95
2023-04-01T16:49:18.128Z,4.80
2023-04-01T16:54:32.498Z,4.70
2023-04-01T16:59:38.575Z,4.59
2023-04-01T17:04:46.338Z,4.54
2023-04-01T17:10:03.129Z,4.45
2023-04-01T17:15:23.284Z,4.33
2023-04-01T17:20:38.201Z,4.30
2023-04-01T17:25:54.603Z,4.29
2023-04-01T17:31:08.516Z,4.28
2023-04-01T17:36:22.446Z,4.25
2023-04-01T17:41:38.014Z,4.18
2023-04-01T17:46:57.386Z,4.10
2023-04-01T17:52:09.459Z,4.00
2023-04-01T17:57:32.016Z,3.90
2023-04-01T18:02:44.970Z,3.82
2023-04-01T18:08:09.507Z,3.78
2023-04-01T18:13:30.736Z,3.74
2023-04-01T18:18:48.039Z,3.69
2023-04-01T18:24:02.202Z,3.61
2023-04-01T18:29:22.651Z,3.58
2023-04-01T18:34:45.420Z,3.59
2023-04-01T18:40:03.996Z,3.64
2023-04-01T18:45:21.785Z,3.64
2023-04-01T18:50:31.360Z,3.56
2023-04-01T18:55:43.434Z,3.49
2023-04-01T19:00:54.018Z,3.48
2023-04-01T19:06:01.829Z,3.50
2023-04-01T19:11:15.993Z,3.55
2023-04-01T19:16:35.608Z,3.56
2023-04-01T19:28:33.540Z,3.46
2023-04-01T20:12:18.096Z,3.13
2023-04-01T20:17:58.178Z,3.11
2023-04-01T20:23:26.528Z,3.08
2023-04-01T20:28:39.862Z,3.06
2023-04-01T20:34:14.724Z,3.02
2023-04-01T20:39:55.595Z,3.00
2023-04-01T20:45:15.670Z,3.02
2023-04-01T20:50:26.496Z,3.00
2023-04-01T21:03:33.103Z,2.97
2023-04-01T21:09:04.433Z,2.99
2023-04-01T21:15:01.104Z,2.98
2023-04-01T21:26:49.110Z,2.93
2023-04-01T21:32:06.617Z,2.92
2023-04-01T21:37:35.179Z,2.95
2023-04-01T21:42:57.751Z,2.97
2023-04-01T21:48:38.630Z,2.95
2023-04-01T21:54:19.150Z,2.94
2023-04-01T21:59:59.140Z,2.94
2023-04-01T22:05:11.087Z,2.96
2023-04-01T22:10:26.604Z,2.97
2023-04-01T22:15:46.872Z,2.93
2023-04-01T22:21:05.755Z,2.88
2023-04-01T22:26:27.174Z,2.83
2023-04-01T22:31:39.222Z,2.79
2023-04-01T22:36:55.743Z,2.78
2023-04-01T22:42:18.118Z,2.80
2023-04-01T22:47:29.540Z,2.80
2023-04-01T22:52:39.636Z,2.80
2023-04-01T22:57:50.247Z,2.81
2023-04-01T23:03:09.876Z,2.83
2023-04-01T23:08:44.825Z,2.85
2023-04-01T23:13:54.236Z,2.84
2023-04-01T23:19:06.354Z,2.83
2023-04-01T23:24:16.810Z,2.84
2023-04-01T23:29:22.021Z,2.86
2023-04-01T23:34:29.390Z,2.87
2023-04-01T23:39:36.851Z,2.88
2023-04-01T23:44:41.511Z,2.85
2023-04-01T23:49:49.820Z,2.81
2023-04-01T23:54:57.842Z,2.79
